»·PEaware :: UAL713 KBUR-KLAS

UAL713 :: KBUR-KLAS

FLIGHT INFORMATION

Flight Status: Arrived
Operator:
United Airlines
More flights by this operator :: More flights under this callsign
Pilot: Wes Yin (14813)
Aircraft: BOEING 757-200
(B752)
More flights by this aircraft type
Origin: KBUR Bob Hope-Burbank
United States
Destination: KLAS McCarran Intl
United States
More flights between these airports :: More routes between these airports
Route: +VNY3 DAG KEPEC4
File this flight plan on PilotEdge
Remarks: I-5
Altitude:
(Current/Filed)
25,000ft
Speed:
(Current/Filed)
450kts
Departed: 20-Apr-17 09:58 PM
Arrived: 20-Apr-17 10:54 PM
Distance/Time
Traveled:
193nm/0:56
Distance/Time
To Go:
Arrived

Flight Plot

Page will automatically refresh every two minutes.

Flight plan parsing failed; only flown route is shown


Map Options




Map Legend


Flown Route
Filed Route
Departure Airport
Arrival Airport
Navaid (VOR, NDB)
Fix

Horizontal Profiles

Position Reports

Time Latitude Longitude Heading Altitude Ground
Speed
20-Apr-17 21:43 34.196936 -118.352403 180 703ft 0kts
20-Apr-17 21:44 34.196936 -118.352403 180 703ft 0kts
20-Apr-17 21:45 34.196936 -118.352403 180 703ft 0kts
20-Apr-17 21:46 34.196936 -118.352403 180 703ft 0kts
20-Apr-17 21:47 34.196936 -118.352403 180 703ft 0kts
20-Apr-17 21:48 34.196936 -118.352403 180 703ft 0kts
20-Apr-17 21:49 34.196936 -118.352403 180 703ft 0kts
20-Apr-17 21:50 34.196936 -118.352403 180 703ft 0kts
20-Apr-17 21:51 34.196936 -118.352403 180 703ft 0kts
20-Apr-17 21:53 34.196978 -118.352402 194 703ft 1kts
20-Apr-17 21:54 34.197081 -118.352245 272 703ft 0kts
20-Apr-17 21:55 34.197156 -118.352853 278 705ft 6kts
20-Apr-17 21:56 34.197238 -118.354870 270 711ft 5kts
20-Apr-17 21:57 34.195129 -118.355046 160 704ft 14kts
20-Apr-17 21:58 34.194629 -118.354946 189 703ft 0kts
20-Apr-17 21:59 34.194744 -118.355610 344 704ft 0kts
20-Apr-17 22:00 34.210001 -118.359764 347 906ft 157kts
20-Apr-17 22:01 34.230315 -118.402270 288 3115ft 158kts
20-Apr-17 22:02 34.244454 -118.466848 288 4553ft 246kts
20-Apr-17 22:03 34.277767 -118.533331 349 8225ft 252kts
20-Apr-17 22:04 34.335475 -118.490103 51 11360ft 288kts
20-Apr-17 22:05 34.389947 -118.418831 40 14250ft 296kts
20-Apr-17 22:06 34.449084 -118.348118 39 16798ft 307kts
20-Apr-17 22:07 34.504216 -118.265744 46 19110ft 322kts
20-Apr-17 22:08 34.560992 -118.175221 47 20103ft 372kts
20-Apr-17 22:09 34.623682 -118.066006 62 21497ft 418kts
20-Apr-17 22:10 34.646242 -117.923580 77 23616ft 438kts
20-Apr-17 22:11 34.661909 -117.777394 75 25106ft 431kts
20-Apr-17 22:12 34.692815 -117.638551 67 25157ft 426kts
20-Apr-17 22:13 34.727739 -117.501983 66 25174ft 425kts
20-Apr-17 22:14 34.765411 -117.359728 67 25180ft 459kts
20-Apr-17 22:15 34.802912 -117.213582 68 25146ft 457kts
20-Apr-17 22:16 34.839836 -117.065813 68 25103ft 458kts
20-Apr-17 22:17 34.877118 -116.917814 68 25081ft 461kts
20-Apr-17 22:18 34.914093 -116.768743 68 25080ft 460kts
20-Apr-17 22:19 34.952479 -116.621201 60 25079ft 452kts
20-Apr-17 22:20 35.021944 -116.504352 41 24834ft 401kts
20-Apr-17 22:21 35.097914 -116.404976 40 24239ft 404kts
20-Apr-17 22:22 35.171273 -116.312387 39 24065ft 377kts
20-Apr-17 22:23 35.244141 -116.221218 40 22506ft 376kts
20-Apr-17 22:24 35.317110 -116.130940 39 20485ft 369kts
20-Apr-17 22:25 35.388523 -116.042507 41 18673ft 360kts
20-Apr-17 22:26 35.456653 -115.956493 41 17149ft 356kts
20-Apr-17 22:27 35.523870 -115.871190 42 14306ft 331kts
20-Apr-17 22:28 35.585407 -115.793027 43 13288ft 353kts
20-Apr-17 22:29 35.652402 -115.707497 43 13032ft 326kts
20-Apr-17 22:30 35.710560 -115.633117 44 13041ft 294kts
20-Apr-17 22:31 35.767447 -115.560117 42 13061ft 312kts
20-Apr-17 22:32 35.850208 -115.518786 353 13004ft 329kts
20-Apr-17 22:33 35.928114 -115.550157 348 12954ft 267kts
20-Apr-17 22:34 35.986942 -115.515194 66 12546ft 275kts
20-Apr-17 22:35 36.013507 -115.427974 64 11593ft 272kts
20-Apr-17 22:36 36.027506 -115.337654 90 10617ft 279kts
20-Apr-17 22:37 36.021406 -115.243298 92 9503ft 275kts
20-Apr-17 22:38 36.014672 -115.148017 93 7903ft 287kts
20-Apr-17 22:39 36.008527 -115.054456 92 7868ft 255kts
20-Apr-17 22:40 36.003401 -114.967646 93 7881ft 254kts
20-Apr-17 22:41 35.998122 -114.880448 93 7882ft 254kts
20-Apr-17 22:42 35.992639 -114.793445 94 7882ft 254kts
20-Apr-17 22:43 35.986900 -114.706882 94 7883ft 254kts
20-Apr-17 22:44 35.982594 -114.629849 76 7869ft 209kts
20-Apr-17 22:45 36.027855 -114.602170 3 7885ft 193kts
20-Apr-17 22:46 36.063533 -114.630639 278 7938ft 180kts
20-Apr-17 22:47 36.070003 -114.692020 276 7955ft 180kts
20-Apr-17 22:48 36.073161 -114.753946 270 7636ft 181kts
20-Apr-17 22:49 36.073270 -114.815445 270 6783ft 179kts
20-Apr-17 22:50 36.073408 -114.876944 271 5881ft 178kts
20-Apr-17 22:51 36.073511 -114.937823 271 5041ft 176kts
20-Apr-17 22:52 36.073579 -114.993829 271 4138ft 156kts
20-Apr-17 22:53 36.073626 -115.046811 271 3331ft 155kts
20-Apr-17 22:54 36.073644 -115.095161 271 2583ft 134kts
20-Apr-17 22:55 36.073662 -115.138795 269 2086ft 96kts
20-Apr-17 22:56 36.075114 -115.151089 318 2125ft 14kts

Navigation Log

Ident Type
Flight plan parsing failed, navigation log unavailable